Terminal Aerodrome Forecast
Issued by NWS Wilmington, OH

Current Version | Previous Version | Graphics & Text | Print | Product List | Glossary On
Versions: 1 2 3 4 5 6 7 8 9 10 11 12 13 14 15 16 17 18 19 20 21 22 23 24 25 26 27 28
803
FTUS41 KILN 152329
TAFCVG
TAF
KCVG 152329Z 1600/1706 32014G23KT P6SM BKN027
     FM160200 32010KT P6SM BKN035
     FM161300 34008KT P6SM BKN040
     FM161800 32008KT P6SM FEW050
     FM170200 VRB04KT P6SM SKC=

USA.gov is the U.S. government's official web portal to all federal, state and local government web resources and services.